createdAt,value
2017-11-18T00:00:56.906Z,82.30
2017-11-18T00:03:25.050Z,82.30
2017-11-18T00:05:53.195Z,82.20
2017-11-18T00:08:21.465Z,82.20
2017-11-18T00:10:49.626Z,82.40
2017-11-18T00:13:17.812Z,82.40
2017-11-18T00:15:45.946Z,82.50
2017-11-18T00:18:14.077Z,82.30
2017-11-18T00:20:43.046Z,82.20
2017-11-18T00:23:11.169Z,82.30
2017-11-18T00:25:39.460Z,82.30
2017-11-18T00:28:07.598Z,82.20
2017-11-18T00:30:35.740Z,82.20
2017-11-18T00:33:03.915Z,82.10
2017-11-18T00:35:32.058Z,81.90
2017-11-18T00:38:00.315Z,81.80
2017-11-18T00:40:28.464Z,81.70
2017-11-18T00:42:56.658Z,81.80
2017-11-18T00:45:24.812Z,81.90
2017-11-18T00:47:52.971Z,82.00
2017-11-18T00:50:21.148Z,81.90
2017-11-18T00:52:49.276Z,82.00
2017-11-18T00:55:17.439Z,81.80
2017-11-18T00:57:45.573Z,81.70
2017-11-18T01:00:14.616Z,81.50
2017-11-18T01:02:42.778Z,81.50
2017-11-18T01:05:10.909Z,81.50
2017-11-18T01:07:39.851Z,81.60
2017-11-18T01:10:07.987Z,81.60
2017-11-18T01:12:37.037Z,81.80
2017-11-18T01:15:05.179Z,81.80
2017-11-18T01:17:33.443Z,81.70
2017-11-18T01:20:01.611Z,81.80
2017-11-18T01:22:29.746Z,81.80
2017-11-18T01:24:57.916Z,81.90
2017-11-18T01:27:26.068Z,82.00
2017-11-18T01:29:54.262Z,82.00
2017-11-18T01:32:22.387Z,82.00
2017-11-18T01:34:50.662Z,81.90
2017-11-18T01:37:18.797Z,81.80
2017-11-18T01:39:46.963Z,81.80
2017-11-18T01:42:15.133Z,81.70
2017-11-18T01:44:43.276Z,81.60
2017-11-18T01:47:11.418Z,81.70
2017-11-18T01:49:39.682Z,81.70
2017-11-18T01:52:08.606Z,81.70
2017-11-18T01:54:36.749Z,81.60
2017-11-18T01:57:05.688Z,81.70
2017-11-18T01:59:33.814Z,81.80
2017-11-18T02:02:02.780Z,81.80
2017-11-18T02:04:30.922Z,81.80
2017-11-18T02:06:59.203Z,81.80
2017-11-18T02:09:27.329Z,81.80
2017-11-18T02:11:56.301Z,82.10
2017-11-18T02:14:24.441Z,82.20
2017-11-18T02:16:52.610Z,82.60
2017-11-18T02:19:20.779Z,82.80
2017-11-18T02:21:48.920Z,83.60
2017-11-18T02:24:17.826Z,84.20
2017-11-18T02:26:46.102Z,84.20
2017-11-18T02:29:14.254Z,84.70
2017-11-18T02:31:42.399Z,85.10
2017-11-18T02:34:10.577Z,85.30
2017-11-18T02:36:38.772Z,85.10
2017-11-18T02:39:07.010Z,85.00
2017-11-18T02:41:35.138Z,85.10
2017-11-18T02:44:03.306Z,85.10
2017-11-18T02:46:31.450Z,85.00
2017-11-18T02:48:59.582Z,84.90
2017-11-18T02:51:27.741Z,84.80
2017-11-18T02:53:55.876Z,84.70
2017-11-18T02:56:24.184Z,84.90
2017-11-18T02:58:52.337Z,84.90
2017-11-18T03:01:20.465Z,84.90
2017-11-18T03:03:48.633Z,84.90
2017-11-18T03:06:16.771Z,84.70
2017-11-18T03:08:44.934Z,84.60
2017-11-18T03:11:13.849Z,84.30
2017-11-18T03:13:42.902Z,84.20
2017-11-18T03:16:11.030Z,84.20
2017-11-18T03:18:39.202Z,84.60
2017-11-18T03:21:07.345Z,83.90
2017-11-18T03:23:35.478Z,83.90
2017-11-18T03:26:03.654Z,83.80
2017-11-18T03:28:31.798Z,83.90
2017-11-18T03:31:00.075Z,83.80
2017-11-18T03:33:28.215Z,84.20
2017-11-18T03:35:56.382Z,84.10
2017-11-18T03:38:24.548Z,84.00
2017-11-18T03:40:53.473Z,84.20
2017-11-18T03:43:21.625Z,84.20
2017-11-18T03:45:49.762Z,84.20
2017-11-18T03:48:18.046Z,84.00
2017-11-18T03:50:46.182Z,83.90
2017-11-18T03:53:14.324Z,84.00
2017-11-18T03:55:42.487Z,84.00
2017-11-18T03:58:11.382Z,83.80
2017-11-18T04:00:39.545Z,84.40
2017-11-18T04:03:08.450Z,84.20
2017-11-18T04:05:36.737Z,84.20
2017-11-18T04:08:04.880Z,83.90
2017-11-18T04:10:33.038Z,83.90
2017-11-18T04:13:01.194Z,83.90
2017-11-18T04:15:29.331Z,84.00
2017-11-18T04:17:57.486Z,84.10
2017-11-18T04:20:26.431Z,84.00
2017-11-18T04:22:54.732Z,84.10
2017-11-18T04:25:22.853Z,83.90
2017-11-18T04:27:50.990Z,83.80
2017-11-18T04:30:19.932Z,84.10
2017-11-18T04:32:48.066Z,84.10
2017-11-18T04:35:16.202Z,85.00
2017-11-18T04:37:44.362Z,84.50
2017-11-18T04:40:12.510Z,84.40
2017-11-18T04:42:40.789Z,84.10
2017-11-18T04:45:08.921Z,84.00
2017-11-18T04:47:37.818Z,83.80
2017-11-18T04:50:06.739Z,83.80
2017-11-18T04:52:34.882Z,83.80
2017-11-18T04:55:03.817Z,83.70
2017-11-18T04:57:31.954Z,83.70
2017-11-18T05:00:01.009Z,83.80
2017-11-18T05:02:29.154Z,83.80
2017-11-18T05:04:57.325Z,84.00
2017-11-18T05:07:25.462Z,84.50
2017-11-18T05:09:54.363Z,84.80
2017-11-18T05:12:22.532Z,84.80
2017-11-18T05:14:50.691Z,85.00
2017-11-18T05:17:18.956Z,85.00
2017-11-18T05:19:47.082Z,85.00
2017-11-18T05:22:15.249Z,84.80
2017-11-18T05:24:43.389Z,85.00
2017-11-18T05:27:12.293Z,85.20
2017-11-18T05:29:40.463Z,85.20
2017-11-18T05:32:09.360Z,85.00
2017-11-18T05:34:37.645Z,85.00
2017-11-18T05:37:05.777Z,85.00
2017-11-18T05:39:33.918Z,84.90
2017-11-18T05:42:02.089Z,85.20
2017-11-18T05:44:30.228Z,85.70
2017-11-18T05:46:59.114Z,85.70
2017-11-18T05:49:28.060Z,85.60
2017-11-18T05:51:56.192Z,85.70
2017-11-18T05:54:24.468Z,85.50
2017-11-18T05:56:52.617Z,85.30
2017-11-18T05:59:20.775Z,85.30
2017-11-18T06:01:48.914Z,84.90
2017-11-18T06:04:17.082Z,84.60
2017-11-18T06:06:45.225Z,85.10
2017-11-18T06:09:13.500Z,84.70
2017-11-18T06:11:41.651Z,84.70
2017-11-18T06:14:10.593Z,84.90
2017-11-18T06:16:38.746Z,84.90
2017-11-18T06:19:06.891Z,84.80
2017-11-18T06:21:35.054Z,84.60
2017-11-18T06:24:03.202Z,84.30
2017-11-18T06:26:31.485Z,84.30
2017-11-18T06:28:59.629Z,84.30
2017-11-18T06:31:28.545Z,84.10
2017-11-18T06:33:56.718Z,84.00
2017-11-18T06:36:24.898Z,84.00
2017-11-18T06:38:53.056Z,83.70
2017-11-18T06:41:21.193Z,83.80
2017-11-18T06:43:49.385Z,83.80
2017-11-18T06:46:18.290Z,84.10
2017-11-18T06:48:46.421Z,84.00
2017-11-18T06:51:15.356Z,83.80
2017-11-18T06:53:43.505Z,83.70
2017-11-18T06:56:11.659Z,83.70
2017-11-18T06:58:40.556Z,83.60
2017-11-18T07:01:08.840Z,83.60
2017-11-18T07:03:36.994Z,83.60
2017-11-18T07:06:05.890Z,83.30
2017-11-18T07:08:34.826Z,83.00
2017-11-18T07:11:02.972Z,83.00
2017-11-18T07:13:31.116Z,82.80
2017-11-18T07:16:00.017Z,82.60
2017-11-18T07:18:28.985Z,82.40
2017-11-18T07:21:24.153Z,82.40
2017-11-18T07:23:52.334Z,82.40
2017-11-18T07:26:20.542Z,82.40
2017-11-18T07:28:50.578Z,82.20
2017-11-18T07:31:27.384Z,82.40
2017-11-18T07:34:03.028Z,82.40
2017-11-18T07:36:33.768Z,82.10
2017-11-18T07:39:03.328Z,82.40
2017-11-18T07:41:36.601Z,82.40
2017-11-18T07:44:04.746Z,82.40
2017-11-18T07:46:32.874Z,82.40
2017-11-18T07:49:02.634Z,82.60
2017-11-18T07:51:34.214Z,82.50
2017-11-18T07:54:02.525Z,82.50
2017-11-18T07:56:34.042Z,82.00
2017-11-18T07:59:02.194Z,82.10
2017-11-18T08:01:30.345Z,81.90
2017-11-18T08:03:58.472Z,81.90
2017-11-18T08:06:26.641Z,81.60
2017-11-18T08:08:54.782Z,81.90
2017-11-18T08:11:23.018Z,81.70
2017-11-18T08:13:51.931Z,81.70
2017-11-18T08:16:20.094Z,81.60
2017-11-18T08:18:49.018Z,81.40
2017-11-18T08:21:17.164Z,81.40
2017-11-18T08:23:45.363Z,81.40
2017-11-18T08:26:13.501Z,81.20
2017-11-18T08:28:41.648Z,81.00
2017-11-18T08:31:09.842Z,80.90
2017-11-18T08:33:38.761Z,81.60
2017-11-18T08:36:06.934Z,81.60
2017-11-18T08:38:35.078Z,82.00
2017-11-18T08:41:04.005Z,81.60
2017-11-18T08:43:32.149Z,81.60
2017-11-18T08:46:01.058Z,82.10
2017-11-18T08:48:29.331Z,82.10
2017-11-18T08:50:57.504Z,81.90
2017-11-18T08:53:25.681Z,81.70
2017-11-18T08:55:53.831Z,81.70
2017-11-18T08:58:22.737Z,81.80
2017-11-18T09:00:50.897Z,81.80
2017-11-18T09:03:19.820Z,80.30
2017-11-18T09:05:48.101Z,80.30
2017-11-18T09:08:16.247Z,80.70
2017-11-18T09:10:44.418Z,81.20
2017-11-18T09:13:12.590Z,81.10
2017-11-18T09:15:41.504Z,81.50
2017-11-18T09:18:09.694Z,81.50
2017-11-18T09:20:37.823Z,80.60
2017-11-18T09:23:06.728Z,79.60
2017-11-18T09:25:34.938Z,79.60
2017-11-18T09:28:03.086Z,79.70
2017-11-18T09:30:31.267Z,78.40
2017-11-18T09:32:59.391Z,77.70
2017-11-18T09:35:27.581Z,77.40
2017-11-18T09:37:56.486Z,74.90
2017-11-18T09:40:24.631Z,74.80
2017-11-18T09:42:52.846Z,73.60
2017-11-18T09:45:21.005Z,75.50
2017-11-18T09:47:49.135Z,74.90
2017-11-18T09:50:17.297Z,74.90
2017-11-18T09:52:45.419Z,74.50
2017-11-18T09:55:14.318Z,73.00
2017-11-18T09:57:42.534Z,73.00
2017-11-18T10:00:10.653Z,73.40
2017-11-18T10:02:39.689Z,73.80
2017-11-18T10:05:07.826Z,74.60
2017-11-18T10:07:36.017Z,73.20
2017-11-18T10:10:04.159Z,73.00
2017-11-18T10:12:32.302Z,72.10
2017-11-18T10:15:00.513Z,72.20
2017-11-18T10:17:29.421Z,69.90
2017-11-18T10:19:58.338Z,70.00
2017-11-18T10:22:26.477Z,70.00
2017-11-18T10:24:55.406Z,70.40
2017-11-18T10:27:23.529Z,70.40
2017-11-18T10:29:52.442Z,70.40
2017-11-18T10:32:20.707Z,70.30
2017-11-18T10:34:48.839Z,70.10
2017-11-18T10:37:17.031Z,70.10
2017-11-18T10:39:45.195Z,69.10
2017-11-18T10:42:13.318Z,69.50
2017-11-18T10:44:41.486Z,68.80
2017-11-18T10:47:09.605Z,68.90
2017-11-18T10:49:37.899Z,68.30
2017-11-18T10:52:06.029Z,68.50
2017-11-18T10:54:34.159Z,68.50
2017-11-18T10:57:03.077Z,68.40
2017-11-18T10:59:31.246Z,68.40
2017-11-18T11:01:59.405Z,68.70
2017-11-18T11:04:27.583Z,68.80
2017-11-18T11:06:56.612Z,66.30
2017-11-18T11:09:24.835Z,66.30
2017-11-18T11:11:53.033Z,67.20
2017-11-18T11:14:21.964Z,67.00
2017-11-18T11:16:50.124Z,67.00
2017-11-18T11:19:18.264Z,66.60
2017-11-18T11:21:47.211Z,64.40
2017-11-18T11:24:15.341Z,64.40
2017-11-18T11:26:43.468Z,64.90
2017-11-18T11:29:11.651Z,63.10
2017-11-18T11:31:39.804Z,64.20
2017-11-18T11:34:07.974Z,63.70
2017-11-18T11:36:36.098Z,64.00
2017-11-18T11:39:04.234Z,62.50
2017-11-18T11:41:32.526Z,61.70
2017-11-18T11:44:01.445Z,59.90
2017-11-18T11:46:29.563Z,59.90
2017-11-18T11:48:57.743Z,61.70
2017-11-18T11:51:25.881Z,61.50
2017-11-18T11:53:53.995Z,61.20
2017-11-18T11:56:22.165Z,61.50
2017-11-18T11:58:50.287Z,60.80
2017-11-18T12:01:18.570Z,63.00
2017-11-18T12:03:46.709Z,61.70
2017-11-18T12:06:14.846Z,61.00
2017-11-18T12:08:43.013Z,60.30
2017-11-18T12:11:11.194Z,60.60
2017-11-18T12:13:39.370Z,60.20
2017-11-18T12:16:07.505Z,59.10
2017-11-18T12:18:35.785Z,60.70
2017-11-18T12:21:19.587Z,60.60
2017-11-18T12:23:48.517Z,61.30
2017-11-18T12:26:16.634Z,61.30
2017-11-18T12:28:44.773Z,61.70
2017-11-18T12:31:12.966Z,60.60
2017-11-18T12:33:41.087Z,60.80
2017-11-18T12:36:09.255Z,61.50
2017-11-18T12:38:38.153Z,61.60
2017-11-18T12:41:06.283Z,61.60
2017-11-18T12:43:34.437Z,61.00
2017-11-18T12:46:02.578Z,60.40
2017-11-18T12:48:30.713Z,61.60
2017-11-18T12:50:58.829Z,61.60
2017-11-18T12:53:27.127Z,61.10
2017-11-18T12:55:55.250Z,60.40
2017-11-18T12:58:24.170Z,60.90
2017-11-18T13:00:52.336Z,60.90
2017-11-18T13:03:20.530Z,59.70
2017-11-18T13:05:48.667Z,60.80
2017-11-18T13:08:16.794Z,59.60
2017-11-18T13:10:45.032Z,59.70
2017-11-18T13:13:13.162Z,60.70
2017-11-18T13:15:41.290Z,60.40
2017-11-18T13:18:09.465Z,60.70
2017-11-18T13:20:37.608Z,61.10
2017-11-18T13:23:06.515Z,60.90
2017-11-18T13:25:34.681Z,60.90
2017-11-18T13:28:02.879Z,60.00
2017-11-18T13:30:31.025Z,61.00
2017-11-18T13:32:59.962Z,61.00
2017-11-18T13:35:28.134Z,61.10
2017-11-18T13:37:56.257Z,61.20
2017-11-18T13:40:25.197Z,61.10
2017-11-18T13:42:53.355Z,61.10
2017-11-18T13:45:21.644Z,61.60
2017-11-18T13:47:49.791Z,62.70
2017-11-18T13:50:17.962Z,63.70
2017-11-18T13:52:46.088Z,64.30
2017-11-18T13:55:14.253Z,65.50
2017-11-18T13:57:42.417Z,66.10
2017-11-18T14:00:10.573Z,66.90
2017-11-18T14:02:38.710Z,67.20
2017-11-18T14:05:07.785Z,68.00
2017-11-18T14:07:35.934Z,68.00
2017-11-18T14:10:04.084Z,68.60
2017-11-18T14:12:32.290Z,68.50
2017-11-18T14:15:00.431Z,68.80
2017-11-18T14:17:28.744Z,68.80
2017-11-18T14:19:56.872Z,69.20
2017-11-18T14:22:25.038Z,68.70
2017-11-18T14:24:53.177Z,68.70
2017-11-18T14:27:21.346Z,68.20
2017-11-18T14:29:49.483Z,67.80
2017-11-18T14:32:17.619Z,67.70
2017-11-18T14:34:45.914Z,67.40
2017-11-18T14:37:14.048Z,68.10
2017-11-18T14:39:42.253Z,66.60
2017-11-18T14:42:10.407Z,67.50
2017-11-18T14:44:39.318Z,66.80
2017-11-18T14:47:07.513Z,67.00
2017-11-18T14:49:35.636Z,67.40
2017-11-18T14:52:04.707Z,67.00
2017-11-18T14:54:32.869Z,67.00
2017-11-18T14:57:00.996Z,66.50
2017-11-18T14:59:29.998Z,66.20
2017-11-18T15:01:58.135Z,66.30
2017-11-18T15:04:26.323Z,67.00
2017-11-18T15:06:55.232Z,66.60
2017-11-18T15:09:23.393Z,66.60
2017-11-18T15:11:52.355Z,66.70
2017-11-18T15:14:20.498Z,66.60
2017-11-18T15:16:48.817Z,66.50
2017-11-18T15:19:17.006Z,66.70
2017-11-18T15:21:45.165Z,66.50
2017-11-18T15:24:13.296Z,66.60
2017-11-18T15:26:41.477Z,65.40
2017-11-18T15:29:09.621Z,64.90
2017-11-18T15:31:37.782Z,65.20
2017-11-18T15:34:05.919Z,64.80
2017-11-18T15:36:34.104Z,65.20
2017-11-18T15:39:02.254Z,64.90
2017-11-18T15:41:30.453Z,65.60
2017-11-18T15:43:58.605Z,66.30
2017-11-18T15:46:26.757Z,66.10
2017-11-18T15:48:54.951Z,66.90
2017-11-18T15:51:23.075Z,66.20
2017-11-18T15:53:51.262Z,66.10
2017-11-18T15:56:19.450Z,65.90
2017-11-18T15:58:56.341Z,65.30
2017-11-18T16:01:24.543Z,65.30
2017-11-18T16:03:52.690Z,64.70
2017-11-18T16:06:20.807Z,65.20
2017-11-18T16:08:49.875Z,64.80
2017-11-18T16:11:18.031Z,64.90
2017-11-18T16:13:46.193Z,65.10
2017-11-18T16:16:14.333Z,65.00
2017-11-18T16:18:42.650Z,64.90
2017-11-18T16:21:10.792Z,65.30
2017-11-18T16:23:38.927Z,65.70
2017-11-18T16:26:07.134Z,65.60
2017-11-18T16:28:35.278Z,65.80
2017-11-18T16:31:03.447Z,65.60
2017-11-18T16:33:31.586Z,65.50
2017-11-18T16:35:59.743Z,65.90
2017-11-18T16:38:27.927Z,65.40
2017-11-18T16:40:56.051Z,65.00
2017-11-18T16:43:25.033Z,64.70
2017-11-18T16:45:53.196Z,64.70
2017-11-18T16:48:21.374Z,64.20
2017-11-18T16:50:49.529Z,65.40
2017-11-18T16:53:17.696Z,65.00
2017-11-18T16:55:45.979Z,64.50
2017-11-18T16:58:14.122Z,64.40
2017-11-18T17:00:42.294Z,64.80
2017-11-18T17:03:10.422Z,65.00
2017-11-18T17:05:38.580Z,64.60
2017-11-18T17:08:06.738Z,64.70
2017-11-18T17:10:34.870Z,64.80
2017-11-18T17:13:04.056Z,65.00
2017-11-18T17:15:32.978Z,64.70
2017-11-18T17:18:03.942Z,64.70
2017-11-18T17:20:32.094Z,64.10
2017-11-18T17:23:00.231Z,64.30
2017-11-18T17:25:29.151Z,65.10
2017-11-18T17:27:57.299Z,65.10
2017-11-18T17:30:26.253Z,65.40
2017-11-18T17:32:54.400Z,64.60
2017-11-18T17:35:22.662Z,64.80
2017-11-18T17:37:50.844Z,65.00
2017-11-18T17:40:18.985Z,64.50
2017-11-18T17:42:47.159Z,65.00
2017-11-18T17:45:16.067Z,64.00
2017-11-18T17:47:44.339Z,64.00
2017-11-18T17:50:12.470Z,64.10
2017-11-18T17:52:40.623Z,64.20
2017-11-18T17:55:08.842Z,64.30
2017-11-18T17:57:37.002Z,64.30
2017-11-18T18:00:05.162Z,64.20
2017-11-18T18:02:33.312Z,64.70
2017-11-18T18:05:01.460Z,64.30
2017-11-18T18:07:29.635Z,65.30
2017-11-18T18:09:57.765Z,65.10
2017-11-18T18:12:26.000Z,64.70
2017-11-18T18:14:54.900Z,65.00
2017-11-18T18:17:23.060Z,64.90
2017-11-18T18:19:51.240Z,65.30
2017-11-18T18:22:19.384Z,66.00
2017-11-18T18:24:48.431Z,65.60
2017-11-18T18:27:16.587Z,65.60
2017-11-18T18:29:44.720Z,65.50
2017-11-18T18:32:13.612Z,65.40
2017-11-18T18:34:42.530Z,65.40
2017-11-18T18:37:10.701Z,65.30
2017-11-18T18:39:38.847Z,65.40
2017-11-18T18:42:07.919Z,65.50
2017-11-18T18:44:36.058Z,65.50
2017-11-18T18:47:04.200Z,65.10
2017-11-18T18:49:32.477Z,65.60
2017-11-18T18:52:00.625Z,65.60
2017-11-18T18:54:29.574Z,66.50
2017-11-18T18:56:57.703Z,66.50
2017-11-18T18:59:26.625Z,66.20
2017-11-18T19:01:54.759Z,66.20
2017-11-18T19:04:23.820Z,66.40
2017-11-18T19:06:51.986Z,66.20
2017-11-18T19:09:20.138Z,66.70
2017-11-18T19:11:48.327Z,66.60
2017-11-18T19:14:16.491Z,65.70
2017-11-18T19:16:44.659Z,66.00
2017-11-18T19:19:12.790Z,67.10
2017-11-18T19:21:41.854Z,66.20
2017-11-18T19:24:10.074Z,66.20
2017-11-18T19:26:38.973Z,66.10
2017-11-18T19:29:07.171Z,66.20
2017-11-18T19:31:36.055Z,65.60
2017-11-18T19:34:04.203Z,65.70
2017-11-18T19:36:32.360Z,65.90
2017-11-18T19:39:00.504Z,65.80
2017-11-18T19:41:28.798Z,65.70
2017-11-18T19:43:56.927Z,65.20
2017-11-18T19:46:25.065Z,65.10
2017-11-18T19:48:54.001Z,65.00
2017-11-18T19:51:22.159Z,65.00
2017-11-18T19:53:51.195Z,65.00
2017-11-18T19:56:19.410Z,65.30
2017-11-18T19:58:47.538Z,65.00
2017-11-18T20:01:15.862Z,65.20
2017-11-18T20:03:43.994Z,65.00
2017-11-18T20:06:12.125Z,65.20
2017-11-18T20:08:40.314Z,65.30
2017-11-18T20:11:08.515Z,65.10
2017-11-18T20:13:36.701Z,65.10
2017-11-18T20:16:04.859Z,65.40
2017-11-18T20:18:32.979Z,65.50
2017-11-18T20:21:01.297Z,65.20
2017-11-18T20:23:29.452Z,65.90
2017-11-18T20:25:57.578Z,65.30
2017-11-18T20:28:26.482Z,65.90
2017-11-18T20:30:55.409Z,66.10
2017-11-18T20:33:23.540Z,66.10
2017-11-18T20:35:52.594Z,65.30
2017-11-18T20:38:20.737Z,65.10
2017-11-18T20:40:48.920Z,65.10
2017-11-18T20:43:17.078Z,65.10
2017-11-18T20:45:45.225Z,65.20
2017-11-18T20:48:14.147Z,64.80
2017-11-18T20:50:42.307Z,64.80
2017-11-18T20:53:10.587Z,65.00
2017-11-18T20:55:39.493Z,65.30
2017-11-18T20:58:07.653Z,65.30
2017-11-18T21:00:35.785Z,65.00
2017-11-18T21:03:03.919Z,65.20
2017-11-18T21:05:32.101Z,64.80
2017-11-18T21:08:00.242Z,64.70
2017-11-18T21:10:29.140Z,64.90
2017-11-18T21:12:57.369Z,64.90
2017-11-18T21:15:25.493Z,64.80
2017-11-18T21:17:53.795Z,65.20
2017-11-18T21:20:21.936Z,64.50
2017-11-18T21:22:50.113Z,64.40
2017-11-18T21:25:18.268Z,65.00
2017-11-18T21:27:47.146Z,64.60
2017-11-18T21:30:16.100Z,64.60
2017-11-18T21:32:44.227Z,64.60
2017-11-18T21:35:12.357Z,64.70
2017-11-18T21:37:40.637Z,65.00
2017-11-18T21:40:08.790Z,64.40
2017-11-18T21:42:36.998Z,64.90
2017-11-18T21:45:05.152Z,64.80
2017-11-18T21:47:33.280Z,65.10
2017-11-18T21:50:01.438Z,65.10
2017-11-18T21:52:29.734Z,65.30
2017-11-18T21:54:58.644Z,65.20
2017-11-18T21:57:26.814Z,65.20
2017-11-18T21:59:54.974Z,65.40
2017-11-18T22:02:23.112Z,65.30
2017-11-18T22:04:51.274Z,65.40
2017-11-18T22:07:19.431Z,65.60
2017-11-18T22:09:47.706Z,66.60
2017-11-18T22:12:15.903Z,65.60
2017-11-18T22:14:44.122Z,66.30
2017-11-18T22:17:12.258Z,65.60
2017-11-18T22:19:41.318Z,66.10
2017-11-18T22:22:09.496Z,66.00
2017-11-18T22:24:37.630Z,65.50
2017-11-18T22:27:05.806Z,65.50
2017-11-18T22:29:33.957Z,65.30
2017-11-18T22:32:02.874Z,66.10
2017-11-18T22:34:31.019Z,66.00
2017-11-18T22:36:59.910Z,65.60
2017-11-18T22:39:28.195Z,65.70
2017-11-18T22:41:56.341Z,66.00
2017-11-18T22:44:25.276Z,66.20
2017-11-18T22:46:54.176Z,66.50
2017-11-18T22:49:22.302Z,66.50
2017-11-18T22:51:51.378Z,66.20
2017-11-18T22:54:19.515Z,66.10
2017-11-18T22:56:47.675Z,66.50
2017-11-18T22:59:15.806Z,66.20
2017-11-18T23:01:43.954Z,66.10
2017-11-18T23:04:12.242Z,66.80
2017-11-18T23:06:40.371Z,67.00
2017-11-18T23:09:08.539Z,66.40
2017-11-18T23:11:36.706Z,66.50
2017-11-18T23:14:05.676Z,66.90
2017-11-18T23:16:33.834Z,66.80
2017-11-18T23:19:01.971Z,67.60
2017-11-18T23:21:30.157Z,68.00
2017-11-18T23:23:58.283Z,68.50
2017-11-18T23:26:26.414Z,69.00
2017-11-18T23:28:54.579Z,69.40
2017-11-18T23:31:22.735Z,70.30
2017-11-18T23:33:50.988Z,70.10
2017-11-18T23:36:19.153Z,70.30
2017-11-18T23:38:48.078Z,70.60
2017-11-18T23:41:16.215Z,70.60
2017-11-18T23:43:45.101Z,70.80
2017-11-18T23:46:14.054Z,71.10
2017-11-18T23:48:42.191Z,71.20
2017-11-18T23:51:10.497Z,70.70
2017-11-18T23:53:38.623Z,71.00
2017-11-18T23:56:07.510Z,71.10
2017-11-18T23:58:36.382Z,71.30
